createdAt,value
2022-07-29T00:01:45.646Z,101089.00
2022-07-29T00:04:15.102Z,101084.00
2022-07-29T00:06:44.326Z,101077.00
2022-07-29T00:09:13.235Z,101078.00
2022-07-29T00:11:43.605Z,101078.00
2022-07-29T00:14:12.590Z,101075.00
2022-07-29T00:16:41.671Z,101080.00
2022-07-29T00:19:10.569Z,101083.00
2022-07-29T00:21:39.895Z,101089.00
2022-07-29T00:24:09.447Z,101081.00
2022-07-29T00:26:38.383Z,101093.00
2022-07-29T00:31:57.511Z,101088.00
2022-07-29T00:34:43.603Z,101089.00
2022-07-29T00:37:12.390Z,101088.00
2022-07-29T00:39:41.198Z,101080.00
2022-07-29T00:42:10.858Z,101080.00
2022-07-29T00:44:42.651Z,101090.00
2022-07-29T00:47:13.059Z,101087.00
2022-07-29T00:49:43.301Z,101092.00
2022-07-29T00:52:16.918Z,101086.00
2022-07-29T00:54:46.712Z,101079.00
2022-07-29T00:57:15.824Z,101080.00
2022-07-29T00:59:46.125Z,101081.00
2022-07-29T01:02:18.004Z,101074.00
2022-07-29T01:04:49.911Z,101084.00
2022-07-29T01:07:20.510Z,101081.00
2022-07-29T01:09:49.894Z,101088.00
2022-07-29T01:12:28.012Z,101075.00
2022-07-29T01:14:59.063Z,101077.00
2022-07-29T01:17:34.728Z,101088.00
2022-07-29T01:20:12.915Z,101085.00
2022-07-29T01:23:16.005Z,101083.00
2022-07-29T01:26:03.967Z,101085.00
2022-07-29T01:28:50.052Z,101086.00
2022-07-29T01:31:33.819Z,101085.00
2022-07-29T01:34:12.225Z,101087.00
2022-07-29T01:36:54.516Z,101076.00
2022-07-29T01:39:29.670Z,101081.00
2022-07-29T01:42:11.502Z,101083.00
2022-07-29T01:44:51.342Z,101081.00
2022-07-29T01:47:27.804Z,101079.00
2022-07-29T01:50:02.483Z,101091.00
2022-07-29T01:52:40.440Z,101087.00
2022-07-29T01:55:17.130Z,101088.00
2022-07-29T01:57:50.179Z,101085.00
2022-07-29T02:00:21.785Z,101083.00
2022-07-29T02:02:52.914Z,101085.00
2022-07-29T02:05:24.787Z,101090.00
2022-07-29T02:07:56.301Z,101099.00
2022-07-29T02:10:30.971Z,101090.00
2022-07-29T02:13:03.543Z,101087.00
2022-07-29T02:15:40.142Z,101089.00
2022-07-29T02:18:16.531Z,101093.00
2022-07-29T02:20:50.756Z,101092.00
2022-07-29T02:23:25.277Z,101102.00
2022-07-29T02:25:58.182Z,101091.00
2022-07-29T02:28:31.643Z,101092.00
2022-07-29T02:31:05.834Z,101090.00
2022-07-29T02:33:36.105Z,101089.00
2022-07-29T02:36:06.246Z,101089.00
2022-07-29T02:38:53.761Z,101093.00
2022-07-29T02:41:30.614Z,101089.00
2022-07-29T02:44:07.390Z,101086.00
2022-07-29T02:46:40.244Z,101086.00
2022-07-29T02:49:18.317Z,101083.00
2022-07-29T02:51:57.454Z,101084.00
2022-07-29T02:54:34.068Z,101084.00
2022-07-29T02:57:17.568Z,101082.00
2022-07-29T02:59:52.212Z,101074.00
2022-07-29T03:02:24.259Z,101081.00
2022-07-29T03:04:56.510Z,101081.00
2022-07-29T03:07:27.780Z,101074.00
2022-07-29T03:09:58.072Z,101083.00
2022-07-29T03:12:29.517Z,101075.00
2022-07-29T03:15:01.220Z,101083.00
2022-07-29T03:17:35.176Z,101083.00
2022-07-29T03:20:05.103Z,101091.00
2022-07-29T03:22:34.253Z,101091.00
2022-07-29T03:25:14.031Z,101086.00
2022-07-29T03:27:42.951Z,101085.00
2022-07-29T03:30:21.763Z,101089.00
2022-07-29T03:32:54.652Z,101086.00
2022-07-29T03:35:25.807Z,101084.00
2022-07-29T03:37:54.639Z,101080.00
2022-07-29T03:40:29.947Z,101082.00
2022-07-29T03:43:01.435Z,101088.00
2022-07-29T03:45:34.159Z,101093.00
2022-07-29T03:48:12.699Z,101092.00
2022-07-29T03:50:43.863Z,101086.00
2022-07-29T03:53:13.370Z,101085.00
2022-07-29T03:55:47.274Z,101087.00
2022-07-29T03:58:18.829Z,101089.00
2022-07-29T04:00:48.743Z,101095.00
2022-07-29T04:03:19.992Z,101087.00
2022-07-29T04:06:02.467Z,101089.00
2022-07-29T04:08:34.740Z,101089.00
2022-07-29T04:11:08.229Z,101095.00
2022-07-29T04:13:37.484Z,101103.00
2022-07-29T04:16:07.064Z,101108.00
2022-07-29T04:18:37.377Z,101105.00
2022-07-29T04:21:06.256Z,101102.00
2022-07-29T04:23:49.370Z,101101.00
2022-07-29T04:26:23.334Z,101100.00
2022-07-29T04:28:52.189Z,101102.00
2022-07-29T04:31:25.556Z,101096.00
2022-07-29T04:33:56.510Z,101108.00
2022-07-29T04:36:28.696Z,101100.00
2022-07-29T04:38:58.758Z,101099.00
2022-07-29T04:41:33.163Z,101103.00
2022-07-29T04:44:06.171Z,101101.00
2022-07-29T04:46:46.517Z,101094.00
2022-07-29T04:49:19.503Z,101104.00
2022-07-29T04:51:49.672Z,101094.00
2022-07-29T04:54:18.872Z,101100.00
2022-07-29T04:56:51.874Z,101096.00
2022-07-29T04:59:20.792Z,101095.00
2022-07-29T05:01:49.852Z,101093.00
2022-07-29T05:04:20.692Z,101096.00
2022-07-29T05:06:50.770Z,101093.00
2022-07-29T05:09:19.677Z,101093.00
2022-07-29T05:11:48.558Z,101099.00
2022-07-29T05:14:17.845Z,101088.00
2022-07-29T05:16:46.856Z,101095.00
2022-07-29T05:19:15.881Z,101093.00
2022-07-29T05:21:47.292Z,101093.00
2022-07-29T05:24:16.650Z,101087.00
2022-07-29T05:26:45.913Z,101083.00
2022-07-29T05:29:42.750Z,101089.00
2022-07-29T05:32:03.590Z,101086.00
2022-07-29T05:34:32.649Z,101090.00
2022-07-29T05:37:02.902Z,101094.00
2022-07-29T05:39:47.222Z,101102.00
2022-07-29T05:42:19.893Z,101101.00
2022-07-29T05:44:49.632Z,101087.00
2022-07-29T05:47:18.481Z,101103.00
2022-07-29T05:49:47.441Z,101088.00
2022-07-29T05:52:19.154Z,101100.00
2022-07-29T05:54:47.969Z,101095.00
2022-07-29T05:57:20.933Z,101103.00
2022-07-29T05:59:50.922Z,101093.00
2022-07-29T06:02:32.237Z,101096.00
2022-07-29T06:05:01.111Z,101090.00
2022-07-29T06:07:33.936Z,101093.00
2022-07-29T06:10:06.362Z,101084.00
2022-07-29T06:12:35.445Z,101094.00
2022-07-29T06:15:04.541Z,101095.00
2022-07-29T06:17:33.685Z,101100.00
2022-07-29T06:20:02.905Z,101093.00
2022-07-29T06:22:34.280Z,101101.00
2022-07-29T06:25:04.765Z,101092.00
2022-07-29T06:27:33.636Z,101100.00
2022-07-29T06:30:07.713Z,101108.00
2022-07-29T06:32:42.727Z,101092.00
2022-07-29T06:35:37.795Z,101115.00
2022-07-29T06:38:02.581Z,101114.00
2022-07-29T06:40:49.000Z,101100.00
2022-07-29T06:43:17.875Z,101107.00
2022-07-29T06:45:46.831Z,101102.00
2022-07-29T06:48:15.713Z,101103.00
2022-07-29T06:50:44.655Z,101111.00
2022-07-29T06:53:15.465Z,101108.00
2022-07-29T06:55:44.586Z,101110.00
2022-07-29T06:58:15.253Z,101109.00
2022-07-29T07:00:44.040Z,101115.00
2022-07-29T07:03:13.023Z,101114.00
2022-07-29T07:05:42.173Z,101116.00
2022-07-29T07:08:11.206Z,101130.00
2022-07-29T07:10:41.897Z,101112.00
2022-07-29T07:13:13.648Z,101112.00
2022-07-29T07:15:42.821Z,101112.00
2022-07-29T07:18:11.803Z,101116.00
2022-07-29T07:20:40.667Z,101117.00
2022-07-29T07:23:09.562Z,101118.00
2022-07-29T07:25:38.736Z,101123.00
2022-07-29T07:28:09.083Z,101120.00
2022-07-29T07:30:44.645Z,101122.00
2022-07-29T07:33:13.634Z,101123.00
2022-07-29T07:35:42.780Z,101113.00
2022-07-29T07:38:11.914Z,101122.00
2022-07-29T07:40:41.424Z,101138.00
2022-07-29T07:43:11.691Z,101119.00
2022-07-29T07:45:41.320Z,101123.00
2022-07-29T07:48:11.290Z,101131.00
2022-07-29T07:50:40.228Z,101129.00
2022-07-29T07:53:09.194Z,101128.00
2022-07-29T07:58:35.870Z,101126.00
2022-07-29T08:01:07.701Z,101131.00
2022-07-29T08:03:36.669Z,101120.00
2022-07-29T08:06:07.257Z,101121.00
2022-07-29T08:08:37.158Z,101123.00
2022-07-29T08:11:09.806Z,101142.00
2022-07-29T08:13:40.766Z,101138.00
2022-07-29T08:16:16.596Z,101132.00
2022-07-29T08:18:47.677Z,101139.00
2022-07-29T08:21:17.448Z,101157.00
2022-07-29T08:24:00.809Z,101140.00
2022-07-29T08:26:31.916Z,101145.00
2022-07-29T08:29:02.591Z,101150.00
2022-07-29T08:31:31.701Z,101136.00
2022-07-29T08:34:01.167Z,101135.00
2022-07-29T08:36:30.247Z,101145.00
2022-07-29T08:38:59.722Z,101136.00
2022-07-29T08:41:30.041Z,101151.00
2022-07-29T08:43:58.839Z,101153.00
2022-07-29T08:46:30.463Z,101153.00
2022-07-29T08:49:04.452Z,101154.00
2022-07-29T08:51:49.388Z,101164.00
2022-07-29T08:54:21.079Z,101169.00
2022-07-29T08:56:54.845Z,101167.00
2022-07-29T08:59:29.077Z,101163.00
2022-07-29T09:02:02.721Z,101169.00
2022-07-29T09:04:38.298Z,101164.00
2022-07-29T09:07:08.582Z,101159.00
2022-07-29T09:09:39.077Z,101164.00
2022-07-29T09:12:09.381Z,101127.00
2022-07-29T09:14:38.341Z,101153.00
2022-07-29T09:17:10.018Z,101152.00
2022-07-29T09:19:45.387Z,101163.00
2022-07-29T09:22:41.852Z,101167.00
2022-07-29T09:25:14.874Z,101173.00
2022-07-29T09:27:44.181Z,101170.00
2022-07-29T09:30:17.398Z,101166.00
2022-07-29T09:33:08.924Z,101154.00
2022-07-29T09:35:37.684Z,101179.00
2022-07-29T09:38:14.340Z,101180.00
2022-07-29T09:40:43.480Z,101162.00
2022-07-29T09:43:14.439Z,101181.00
2022-07-29T09:45:43.732Z,101183.00
2022-07-29T09:48:20.235Z,101161.00
2022-07-29T09:50:50.842Z,101177.00
2022-07-29T09:53:40.978Z,101172.00
2022-07-29T09:56:11.752Z,101182.00
2022-07-29T09:58:40.813Z,101154.00
2022-07-29T10:01:09.798Z,101168.00
2022-07-29T10:06:30.862Z,101177.00
2022-07-29T10:09:16.637Z,101172.00
2022-07-29T10:12:10.291Z,101160.00
2022-07-29T10:14:40.889Z,101161.00
2022-07-29T10:17:11.168Z,101163.00
2022-07-29T10:19:43.031Z,101155.00
2022-07-29T10:22:14.973Z,101173.00
2022-07-29T10:24:44.009Z,101174.00
2022-07-29T10:27:13.772Z,101159.00
2022-07-29T10:29:42.837Z,101165.00
2022-07-29T10:32:33.138Z,101172.00
2022-07-29T10:35:22.198Z,101168.00
2022-07-29T10:38:29.483Z,101187.00
2022-07-29T10:41:32.060Z,101175.00
2022-07-29T10:44:17.147Z,101173.00
2022-07-29T10:46:51.736Z,101170.00
2022-07-29T10:49:25.202Z,101177.00
2022-07-29T10:52:06.984Z,101174.00
2022-07-29T10:54:48.466Z,101205.00
2022-07-29T10:57:53.026Z,101192.00
2022-07-29T11:00:34.984Z,101176.00
2022-07-29T11:03:08.526Z,101196.00
2022-07-29T11:05:59.930Z,101188.00
2022-07-29T11:08:29.950Z,101170.00
2022-07-29T11:11:44.079Z,101171.00
2022-07-29T11:14:26.579Z,101182.00
2022-07-29T11:17:09.179Z,101201.00
2022-07-29T11:19:44.733Z,101165.00
2022-07-29T11:22:43.127Z,101178.00
2022-07-29T11:25:17.712Z,101188.00
2022-07-29T11:27:48.202Z,101183.00
2022-07-29T11:30:17.551Z,101155.00
2022-07-29T11:32:48.668Z,101162.00
2022-07-29T11:35:37.315Z,101186.00
2022-07-29T11:38:29.292Z,101185.00
2022-07-29T11:41:27.160Z,101188.00
2022-07-29T11:44:00.132Z,101176.00
2022-07-29T11:46:50.118Z,101176.00
2022-07-29T11:49:31.955Z,101141.00
2022-07-29T11:52:04.010Z,101169.00
2022-07-29T11:54:57.030Z,101176.00
2022-07-29T11:57:36.070Z,101177.00
2022-07-29T12:00:12.342Z,101172.00
2022-07-29T12:02:48.227Z,101173.00
2022-07-29T12:05:35.892Z,101179.00
2022-07-29T12:08:15.679Z,101169.00
2022-07-29T12:10:46.958Z,101174.00
2022-07-29T12:13:22.235Z,101166.00
2022-07-29T12:16:00.142Z,101166.00
2022-07-29T12:18:29.375Z,101163.00
2022-07-29T12:21:04.901Z,101167.00
2022-07-29T12:23:37.555Z,101166.00
2022-07-29T12:26:10.974Z,101162.00
2022-07-29T12:28:52.314Z,101183.00
2022-07-29T12:31:43.236Z,101163.00
2022-07-29T12:34:14.084Z,101166.00
2022-07-29T12:36:45.081Z,101167.00
2022-07-29T12:39:14.589Z,101158.00
2022-07-29T12:41:43.841Z,101164.00
2022-07-29T12:44:19.178Z,101160.00
2022-07-29T12:47:04.878Z,101157.00
2022-07-29T12:49:38.141Z,101162.00
2022-07-29T12:52:30.107Z,101172.00
2022-07-29T12:55:13.552Z,101154.00
2022-07-29T12:57:55.630Z,101173.00
2022-07-29T13:00:26.386Z,101166.00
2022-07-29T13:03:01.866Z,101172.00
2022-07-29T13:05:48.867Z,101172.00
2022-07-29T13:08:29.640Z,101164.00
2022-07-29T13:10:58.686Z,101166.00
2022-07-29T13:13:27.618Z,101159.00
2022-07-29T13:16:11.690Z,101164.00
2022-07-29T13:18:42.419Z,101159.00
2022-07-29T13:21:18.981Z,101146.00
2022-07-29T13:23:47.908Z,101169.00
2022-07-29T13:26:20.765Z,101164.00
2022-07-29T13:28:51.864Z,101168.00
2022-07-29T13:31:21.074Z,101165.00
2022-07-29T13:33:53.811Z,101179.00
2022-07-29T13:36:25.057Z,101170.00
2022-07-29T13:38:54.144Z,101187.00
2022-07-29T13:41:23.177Z,101175.00
2022-07-29T13:43:56.407Z,101170.00
2022-07-29T13:46:25.435Z,101158.00
2022-07-29T13:48:56.854Z,101181.00
2022-07-29T13:51:26.716Z,101184.00
2022-07-29T13:53:58.461Z,101165.00
2022-07-29T13:56:28.023Z,101191.00
2022-07-29T13:58:58.495Z,101189.00
2022-07-29T14:01:28.653Z,101197.00
2022-07-29T14:04:02.119Z,101182.00
2022-07-29T14:06:34.564Z,101193.00
2022-07-29T14:09:09.716Z,101179.00
2022-07-29T14:11:39.541Z,101182.00
2022-07-29T14:14:08.550Z,101177.00
2022-07-29T14:16:43.034Z,101182.00
2022-07-29T14:19:16.770Z,101186.00
2022-07-29T14:21:51.612Z,101172.00
2022-07-29T14:24:21.642Z,101174.00
2022-07-29T14:26:52.971Z,101184.00
2022-07-29T14:29:23.315Z,101163.00
2022-07-29T14:32:07.812Z,101172.00
2022-07-29T14:34:39.478Z,101175.00
2022-07-29T14:37:09.537Z,101183.00
2022-07-29T14:39:45.127Z,101193.00
2022-07-29T14:42:14.219Z,101174.00
2022-07-29T14:44:44.661Z,101175.00
2022-07-29T14:47:14.108Z,101175.00
2022-07-29T14:50:10.963Z,101182.00
2022-07-29T14:52:40.335Z,101192.00
2022-07-29T14:55:19.408Z,101200.00
2022-07-29T14:57:51.281Z,101191.00
2022-07-29T15:00:22.435Z,101189.00
2022-07-29T15:03:01.914Z,101196.00
2022-07-29T15:05:34.119Z,101198.00
2022-07-29T15:11:00.560Z,101200.00
2022-07-29T15:13:31.069Z,101210.00
2022-07-29T15:16:03.707Z,101181.00
2022-07-29T15:18:33.328Z,101171.00
2022-07-29T15:21:04.098Z,101174.00
2022-07-29T15:23:34.055Z,101177.00
2022-07-29T15:26:03.725Z,101195.00
2022-07-29T15:28:32.817Z,101149.00
2022-07-29T15:31:07.509Z,101187.00
2022-07-29T15:33:38.116Z,101185.00
2022-07-29T15:36:09.398Z,101198.00
2022-07-29T15:38:41.952Z,101168.00
2022-07-29T15:41:12.587Z,101172.00
2022-07-29T15:43:46.088Z,101171.00
2022-07-29T15:46:34.361Z,101180.00
2022-07-29T15:49:04.932Z,101179.00
2022-07-29T15:51:36.666Z,101189.00
2022-07-29T15:54:07.385Z,101193.00
2022-07-29T15:56:36.718Z,101201.00
2022-07-29T15:59:05.660Z,101183.00
2022-07-29T16:01:34.634Z,101195.00
2022-07-29T16:04:03.554Z,101187.00
2022-07-29T16:06:34.259Z,101193.00
2022-07-29T16:09:03.167Z,101187.00
2022-07-29T16:11:33.843Z,101206.00
2022-07-29T16:14:06.560Z,101193.00
2022-07-29T16:16:38.457Z,101169.00
2022-07-29T16:19:09.813Z,101193.00
2022-07-29T16:21:41.029Z,101192.00
2022-07-29T16:24:11.668Z,101196.00
2022-07-29T16:26:42.437Z,101190.00
2022-07-29T16:29:14.224Z,101189.00
2022-07-29T16:32:22.623Z,101196.00
2022-07-29T16:35:02.258Z,101196.00
2022-07-29T16:37:36.945Z,101200.00
2022-07-29T16:40:11.806Z,101207.00
2022-07-29T16:42:47.001Z,101207.00
2022-07-29T16:45:21.463Z,101212.00
2022-07-29T16:47:50.744Z,101206.00
2022-07-29T16:50:20.258Z,101216.00
2022-07-29T16:52:51.842Z,101217.00
2022-07-29T16:55:22.046Z,101198.00
2022-07-29T16:57:53.884Z,101215.00
2022-07-29T17:00:24.957Z,101208.00
2022-07-29T17:02:54.100Z,101219.00
2022-07-29T17:05:24.181Z,101205.00
2022-07-29T17:07:55.037Z,101210.00
2022-07-29T17:10:24.645Z,101201.00
2022-07-29T17:12:57.026Z,101194.00
2022-07-29T17:15:27.066Z,101202.00
2022-07-29T17:17:56.722Z,101189.00
2022-07-29T17:20:29.975Z,101193.00
2022-07-29T17:23:00.461Z,101173.00
2022-07-29T17:25:29.295Z,101193.00
2022-07-29T17:28:00.967Z,101198.00
2022-07-29T17:30:30.590Z,101180.00
2022-07-29T17:32:59.408Z,101162.00
2022-07-29T17:35:45.783Z,101167.00
2022-07-29T17:38:16.025Z,101172.00
2022-07-29T17:40:53.967Z,101185.00
2022-07-29T17:43:22.801Z,101170.00
2022-07-29T17:45:52.085Z,101176.00
2022-07-29T17:48:21.228Z,101153.00
2022-07-29T17:50:51.124Z,101184.00
2022-07-29T17:53:21.386Z,101184.00
2022-07-29T17:55:50.263Z,101179.00
2022-07-29T17:58:19.470Z,101180.00
2022-07-29T18:00:51.342Z,101181.00
2022-07-29T18:03:20.668Z,101178.00
2022-07-29T18:05:49.847Z,101181.00
2022-07-29T18:08:22.219Z,101172.00
2022-07-29T18:10:52.657Z,101185.00
2022-07-29T18:13:21.740Z,101177.00
2022-07-29T18:15:50.936Z,101178.00
2022-07-29T18:18:20.009Z,101179.00
2022-07-29T18:20:49.362Z,101178.00
2022-07-29T18:23:18.310Z,101165.00
2022-07-29T18:25:49.039Z,101171.00
2022-07-29T18:28:18.131Z,101176.00
2022-07-29T18:30:50.265Z,101181.00
2022-07-29T18:33:22.303Z,101183.00
2022-07-29T18:36:10.877Z,101181.00
2022-07-29T18:38:41.618Z,101192.00
2022-07-29T18:41:12.189Z,101193.00
2022-07-29T18:43:40.939Z,101188.00
2022-07-29T18:46:09.738Z,101187.00
2022-07-29T18:48:40.925Z,101186.00
2022-07-29T18:51:10.921Z,101178.00
2022-07-29T18:53:39.828Z,101174.00
2022-07-29T18:56:08.584Z,101179.00
2022-07-29T18:58:39.464Z,101182.00
2022-07-29T19:01:08.371Z,101175.00
2022-07-29T19:03:37.211Z,101185.00
2022-07-29T19:06:06.840Z,101179.00
2022-07-29T19:08:39.674Z,101179.00
2022-07-29T19:11:08.602Z,101178.00
2022-07-29T19:13:39.078Z,101179.00
2022-07-29T19:16:13.479Z,101173.00
2022-07-29T19:18:44.737Z,101179.00
2022-07-29T19:21:13.640Z,101169.00
2022-07-29T19:24:00.743Z,101172.00
2022-07-29T19:26:33.466Z,101174.00
2022-07-29T19:29:04.657Z,101175.00
2022-07-29T19:31:34.990Z,101162.00
2022-07-29T19:34:04.107Z,101156.00
2022-07-29T19:36:32.990Z,101167.00
2022-07-29T19:39:02.501Z,101175.00
2022-07-29T19:41:31.744Z,101170.00
2022-07-29T19:44:04.738Z,101172.00
2022-07-29T19:46:33.498Z,101170.00
2022-07-29T19:49:02.525Z,101177.00
2022-07-29T19:51:31.622Z,101167.00
2022-07-29T19:54:01.464Z,101161.00
2022-07-29T19:56:32.073Z,101166.00
2022-07-29T19:59:01.936Z,101165.00
2022-07-29T20:01:33.322Z,101169.00
2022-07-29T20:04:02.227Z,101164.00
2022-07-29T20:06:31.061Z,101164.00
2022-07-29T20:08:59.836Z,101160.00
2022-07-29T20:11:29.854Z,101157.00
2022-07-29T20:13:59.810Z,101165.00
2022-07-29T20:16:28.636Z,101163.00
2022-07-29T20:18:59.369Z,101161.00
2022-07-29T20:21:28.179Z,101159.00
2022-07-29T20:24:00.441Z,101171.00
2022-07-29T20:26:29.460Z,101155.00
2022-07-29T20:28:58.758Z,101171.00
2022-07-29T20:31:27.869Z,101173.00
2022-07-29T20:33:58.125Z,101165.00
2022-07-29T20:36:26.911Z,101166.00
2022-07-29T20:38:56.192Z,101163.00
2022-07-29T20:41:25.312Z,101163.00
2022-07-29T20:43:54.139Z,101171.00
2022-07-29T20:46:26.066Z,101175.00
2022-07-29T20:48:55.005Z,101165.00
2022-07-29T20:51:25.741Z,101163.00
2022-07-29T20:53:54.642Z,101156.00
2022-07-29T20:56:23.406Z,101164.00
2022-07-29T20:58:52.502Z,101165.00
2022-07-29T21:01:21.660Z,101164.00
2022-07-29T21:03:50.807Z,101179.00
2022-07-29T21:06:19.645Z,101169.00
2022-07-29T21:08:59.900Z,101171.00
2022-07-29T21:11:43.385Z,101165.00
2022-07-29T21:14:28.000Z,101164.00
2022-07-29T21:16:57.179Z,101166.00
2022-07-29T21:19:26.383Z,101167.00
2022-07-29T21:21:55.212Z,101167.00
2022-07-29T21:24:25.439Z,101157.00
2022-07-29T21:27:20.738Z,101151.00
2022-07-29T21:29:49.878Z,101150.00
2022-07-29T21:32:27.385Z,101157.00
2022-07-29T21:34:59.579Z,101148.00
2022-07-29T21:37:28.435Z,101142.00
2022-07-29T21:39:58.992Z,101123.00
2022-07-29T21:42:28.121Z,101137.00
2022-07-29T21:44:58.325Z,101143.00
2022-07-29T21:47:27.271Z,101137.00
2022-07-29T21:49:56.429Z,101137.00
2022-07-29T21:52:26.219Z,101135.00
2022-07-29T21:54:54.998Z,101137.00
2022-07-29T21:57:26.568Z,101140.00
2022-07-29T21:59:59.501Z,101142.00
2022-07-29T22:02:32.033Z,101128.00
2022-07-29T22:05:00.910Z,101142.00
2022-07-29T22:07:54.330Z,101133.00
2022-07-29T22:10:19.084Z,101146.00
2022-07-29T22:12:53.150Z,101138.00
2022-07-29T22:15:25.523Z,101134.00
2022-07-29T22:17:54.834Z,101135.00
2022-07-29T22:20:24.511Z,101135.00
2022-07-29T22:22:54.070Z,101133.00
2022-07-29T22:25:23.912Z,101132.00
2022-07-29T22:27:54.172Z,101134.00
2022-07-29T22:30:26.832Z,101136.00
2022-07-29T22:32:55.640Z,101122.00
2022-07-29T22:35:24.538Z,101126.00
2022-07-29T22:37:54.279Z,101127.00
2022-07-29T22:40:23.348Z,101127.00
2022-07-29T22:43:00.967Z,101129.00
2022-07-29T22:45:29.760Z,101124.00
2022-07-29T22:48:01.734Z,101125.00
2022-07-29T22:50:32.435Z,101120.00
2022-07-29T22:53:01.324Z,101126.00
2022-07-29T22:55:30.314Z,101128.00
2022-07-29T22:58:00.564Z,101133.00
2022-07-29T23:00:29.413Z,101116.00
2022-07-29T23:02:58.188Z,101116.00
2022-07-29T23:05:27.410Z,101112.00
2022-07-29T23:07:56.191Z,101126.00
2022-07-29T23:10:31.048Z,101109.00
2022-07-29T23:13:02.755Z,101110.00
2022-07-29T23:15:31.725Z,101103.00
2022-07-29T23:18:00.892Z,101117.00
2022-07-29T23:20:29.969Z,101116.00
2022-07-29T23:22:58.737Z,101106.00
2022-07-29T23:25:27.521Z,101110.00
2022-07-29T23:27:56.344Z,101108.00
2022-07-29T23:30:26.958Z,101118.00
2022-07-29T23:32:56.324Z,101114.00
2022-07-29T23:35:25.487Z,101109.00
2022-07-29T23:37:54.696Z,101106.00
2022-07-29T23:40:24.822Z,101102.00
2022-07-29T23:42:53.656Z,101105.00
2022-07-29T23:45:22.463Z,101103.00
2022-07-29T23:48:10.273Z,101101.00
2022-07-29T23:50:39.154Z,101103.00
2022-07-29T23:53:07.978Z,101106.00
2022-07-29T23:55:39.312Z,101102.00
2022-07-29T23:58:08.339Z,101099.00
